sensor_id;sensor_type;location;lat;lon;timestamp;P1;durP1;ratioP1;P2;durP2;ratioP2
7477;SDS011;3780;42.424;25.636;2023-07-29T00:02:01;4.93;;;2.08;;
7477;SDS011;3780;42.424;25.636;2023-07-29T00:04:26;3.67;;;2.13;;
7477;SDS011;3780;42.424;25.636;2023-07-29T00:06:51;5.13;;;1.95;;
7477;SDS011;3780;42.424;25.636;2023-07-29T00:09:17;5.13;;;2.03;;
7477;SDS011;3780;42.424;25.636;2023-07-29T00:11:42;2.28;;;1.45;;
7477;SDS011;3780;42.424;25.636;2023-07-29T00:14:07;3.38;;;1.52;;
7477;SDS011;3780;42.424;25.636;2023-07-29T00:16:32;3.28;;;1.80;;
7477;SDS011;3780;42.424;25.636;2023-07-29T00:18:58;3.33;;;1.50;;
7477;SDS011;3780;42.424;25.636;2023-07-29T00:21:23;4.50;;;1.77;;
7477;SDS011;3780;42.424;25.636;2023-07-29T00:23:48;2.58;;;1.40;;
7477;SDS011;3780;42.424;25.636;2023-07-29T00:26:14;2.65;;;1.67;;
7477;SDS011;3780;42.424;25.636;2023-07-29T00:28:39;2.65;;;1.70;;
7477;SDS011;3780;42.424;25.636;2023-07-29T00:31:04;3.70;;;1.77;;
7477;SDS011;3780;42.424;25.636;2023-07-29T00:33:29;5.95;;;2.00;;
7477;SDS011;3780;42.424;25.636;2023-07-29T00:35:55;4.05;;;2.03;;
7477;SDS011;3780;42.424;25.636;2023-07-29T00:38:20;6.65;;;1.60;;
7477;SDS011;3780;42.424;25.636;2023-07-29T00:40:45;2.13;;;1.45;;
7477;SDS011;3780;42.424;25.636;2023-07-29T00:43:10;3.00;;;1.80;;
7477;SDS011;3780;42.424;25.636;2023-07-29T00:45:36;2.75;;;1.67;;
7477;SDS011;3780;42.424;25.636;2023-07-29T00:48:01;4.28;;;1.80;;
7477;SDS011;3780;42.424;25.636;2023-07-29T00:50:27;3.88;;;1.95;;
7477;SDS011;3780;42.424;25.636;2023-07-29T00:52:54;2.30;;;1.50;;
7477;SDS011;3780;42.424;25.636;2023-07-29T00:55:19;4.68;;;1.73;;
7477;SDS011;3780;42.424;25.636;2023-07-29T00:57:44;3.72;;;1.60;;
7477;SDS011;3780;42.424;25.636;2023-07-29T01:00:13;2.95;;;1.85;;
7477;SDS011;3780;42.424;25.636;2023-07-29T01:02:38;2.97;;;2.00;;
7477;SDS011;3780;42.424;25.636;2023-07-29T01:05:04;4.18;;;1.98;;
7477;SDS011;3780;42.424;25.636;2023-07-29T01:10:02;3.92;;;1.85;;
7477;SDS011;3780;42.424;25.636;2023-07-29T01:17:39;2.50;;;1.80;;
7477;SDS011;3780;42.424;25.636;2023-07-29T01:20:09;4.35;;;2.15;;
7477;SDS011;3780;42.424;25.636;2023-07-29T01:22:36;2.83;;;2.08;;
7477;SDS011;3780;42.424;25.636;2023-07-29T01:25:02;3.17;;;2.38;;
7477;SDS011;3780;42.424;25.636;2023-07-29T01:27:28;2.42;;;1.90;;
7477;SDS011;3780;42.424;25.636;2023-07-29T01:29:54;3.15;;;1.90;;
7477;SDS011;3780;42.424;25.636;2023-07-29T01:32:32;2.13;;;1.63;;
7477;SDS011;3780;42.424;25.636;2023-07-29T01:35:00;2.20;;;1.70;;
7477;SDS011;3780;42.424;25.636;2023-07-29T01:37:29;2.83;;;1.92;;
7477;SDS011;3780;42.424;25.636;2023-07-29T01:39:56;3.78;;;1.83;;
7477;SDS011;3780;42.424;25.636;2023-07-29T01:42:22;3.97;;;1.88;;
7477;SDS011;3780;42.424;25.636;2023-07-29T01:44:47;3.58;;;1.92;;
7477;SDS011;3780;42.424;25.636;2023-07-29T01:47:13;3.40;;;1.75;;
7477;SDS011;3780;42.424;25.636;2023-07-29T01:49:38;3.58;;;2.05;;
7477;SDS011;3780;42.424;25.636;2023-07-29T01:52:03;2.80;;;1.70;;
7477;SDS011;3780;42.424;25.636;2023-07-29T01:54:29;2.90;;;1.60;;
7477;SDS011;3780;42.424;25.636;2023-07-29T01:56:54;1.85;;;1.35;;
7477;SDS011;3780;42.424;25.636;2023-07-29T01:59:19;4.43;;;1.90;;
7477;SDS011;3780;42.424;25.636;2023-07-29T02:01:45;6.28;;;1.80;;
7477;SDS011;3780;42.424;25.636;2023-07-29T02:04:11;3.50;;;1.63;;
7477;SDS011;3780;42.424;25.636;2023-07-29T02:06:36;4.90;;;1.55;;
7477;SDS011;3780;42.424;25.636;2023-07-29T02:09:02;3.25;;;1.75;;
7477;SDS011;3780;42.424;25.636;2023-07-29T02:11:29;6.65;;;1.92;;
7477;SDS011;3780;42.424;25.636;2023-07-29T02:13:54;2.50;;;1.65;;
7477;SDS011;3780;42.424;25.636;2023-07-29T02:16:20;3.78;;;1.73;;
7477;SDS011;3780;42.424;25.636;2023-07-29T02:18:46;2.63;;;1.50;;
7477;SDS011;3780;42.424;25.636;2023-07-29T02:21:11;2.65;;;1.80;;
7477;SDS011;3780;42.424;25.636;2023-07-29T02:23:36;4.97;;;2.00;;
7477;SDS011;3780;42.424;25.636;2023-07-29T02:26:01;3.17;;;1.60;;
7477;SDS011;3780;42.424;25.636;2023-07-29T02:28:27;3.90;;;1.75;;
7477;SDS011;3780;42.424;25.636;2023-07-29T02:33:36;4.60;;;2.20;;
7477;SDS011;3780;42.424;25.636;2023-07-29T02:36:01;4.95;;;2.40;;
7477;SDS011;3780;42.424;25.636;2023-07-29T02:38:27;4.05;;;1.90;;
7477;SDS011;3780;42.424;25.636;2023-07-29T02:40:52;2.20;;;1.55;;
7477;SDS011;3780;42.424;25.636;2023-07-29T02:43:17;3.63;;;1.70;;
7477;SDS011;3780;42.424;25.636;2023-07-29T02:45:42;3.58;;;1.65;;
7477;SDS011;3780;42.424;25.636;2023-07-29T02:48:08;4.55;;;2.05;;
7477;SDS011;3780;42.424;25.636;2023-07-29T02:50:34;5.22;;;1.67;;
7477;SDS011;3780;42.424;25.636;2023-07-29T02:52:59;3.97;;;2.35;;
7477;SDS011;3780;42.424;25.636;2023-07-29T02:55:26;4.65;;;1.75;;
7477;SDS011;3780;42.424;25.636;2023-07-29T02:57:51;2.53;;;1.60;;
7477;SDS011;3780;42.424;25.636;2023-07-29T03:00:17;4.50;;;1.88;;
7477;SDS011;3780;42.424;25.636;2023-07-29T03:02:42;7.03;;;2.28;;
7477;SDS011;3780;42.424;25.636;2023-07-29T03:05:08;3.38;;;1.70;;
7477;SDS011;3780;42.424;25.636;2023-07-29T03:07:33;6.82;;;2.25;;
7477;SDS011;3780;42.424;25.636;2023-07-29T03:09:58;3.35;;;2.15;;
7477;SDS011;3780;42.424;25.636;2023-07-29T03:12:24;3.42;;;1.92;;
7477;SDS011;3780;42.424;25.636;2023-07-29T03:14:49;4.43;;;2.00;;
7477;SDS011;3780;42.424;25.636;2023-07-29T03:17:14;3.38;;;2.03;;
7477;SDS011;3780;42.424;25.636;2023-07-29T03:19:40;2.63;;;2.08;;
7477;SDS011;3780;42.424;25.636;2023-07-29T03:22:05;3.53;;;1.95;;
7477;SDS011;3780;42.424;25.636;2023-07-29T03:24:30;11.55;;;2.40;;
7477;SDS011;3780;42.424;25.636;2023-07-29T03:26:55;4.00;;;2.20;;
7477;SDS011;3780;42.424;25.636;2023-07-29T03:29:21;14.52;;;3.47;;
7477;SDS011;3780;42.424;25.636;2023-07-29T03:31:46;8.20;;;3.25;;
7477;SDS011;3780;42.424;25.636;2023-07-29T03:34:11;6.50;;;2.25;;
7477;SDS011;3780;42.424;25.636;2023-07-29T03:36:37;9.40;;;2.83;;
7477;SDS011;3780;42.424;25.636;2023-07-29T03:39:02;3.35;;;2.33;;
7477;SDS011;3780;42.424;25.636;2023-07-29T03:41:28;5.15;;;2.42;;
7477;SDS011;3780;42.424;25.636;2023-07-29T03:43:54;4.35;;;2.28;;
7477;SDS011;3780;42.424;25.636;2023-07-29T03:46:19;8.73;;;2.35;;
7477;SDS011;3780;42.424;25.636;2023-07-29T03:48:46;8.93;;;2.72;;
7477;SDS011;3780;42.424;25.636;2023-07-29T03:51:12;9.07;;;3.28;;
7477;SDS011;3780;42.424;25.636;2023-07-29T03:53:37;7.63;;;2.95;;
7477;SDS011;3780;42.424;25.636;2023-07-29T03:56:02;5.85;;;2.35;;
7477;SDS011;3780;42.424;25.636;2023-07-29T03:58:28;3.88;;;2.40;;
7477;SDS011;3780;42.424;25.636;2023-07-29T04:00:53;5.28;;;2.53;;
7477;SDS011;3780;42.424;25.636;2023-07-29T04:03:18;11.13;;;3.10;;
7477;SDS011;3780;42.424;25.636;2023-07-29T04:05:43;19.77;;;3.80;;
7477;SDS011;3780;42.424;25.636;2023-07-29T04:08:09;5.38;;;2.38;;
7477;SDS011;3780;42.424;25.636;2023-07-29T04:10:34;5.18;;;2.10;;
7477;SDS011;3780;42.424;25.636;2023-07-29T04:13:00;6.35;;;2.28;;
7477;SDS011;3780;42.424;25.636;2023-07-29T04:15:25;11.95;;;4.35;;
7477;SDS011;3780;42.424;25.636;2023-07-29T04:17:50;7.25;;;2.50;;
7477;SDS011;3780;42.424;25.636;2023-07-29T04:20:16;6.22;;;2.55;;
7477;SDS011;3780;42.424;25.636;2023-07-29T04:22:41;3.88;;;2.33;;
7477;SDS011;3780;42.424;25.636;2023-07-29T04:25:07;8.32;;;2.35;;
7477;SDS011;3780;42.424;25.636;2023-07-29T04:27:32;7.50;;;2.35;;
7477;SDS011;3780;42.424;25.636;2023-07-29T04:29:57;8.60;;;2.83;;
7477;SDS011;3780;42.424;25.636;2023-07-29T04:32:23;6.93;;;2.90;;
7477;SDS011;3780;42.424;25.636;2023-07-29T04:34:48;8.85;;;3.03;;
7477;SDS011;3780;42.424;25.636;2023-07-29T04:37:13;5.55;;;2.60;;
7477;SDS011;3780;42.424;25.636;2023-07-29T04:39:39;9.20;;;3.00;;
7477;SDS011;3780;42.424;25.636;2023-07-29T04:42:04;7.80;;;2.60;;
7477;SDS011;3780;42.424;25.636;2023-07-29T04:44:29;11.63;;;3.30;;
7477;SDS011;3780;42.424;25.636;2023-07-29T04:46:55;5.20;;;2.65;;
7477;SDS011;3780;42.424;25.636;2023-07-29T04:49:20;11.57;;;4.10;;
7477;SDS011;3780;42.424;25.636;2023-07-29T04:51:45;16.90;;;4.40;;
7477;SDS011;3780;42.424;25.636;2023-07-29T04:54:10;13.40;;;4.72;;
7477;SDS011;3780;42.424;25.636;2023-07-29T04:56:36;15.13;;;6.28;;
7477;SDS011;3780;42.424;25.636;2023-07-29T04:59:01;9.43;;;4.15;;
7477;SDS011;3780;42.424;25.636;2023-07-29T05:01:26;11.60;;;4.00;;
7477;SDS011;3780;42.424;25.636;2023-07-29T05:03:52;6.63;;;3.47;;
7477;SDS011;3780;42.424;25.636;2023-07-29T05:06:17;5.13;;;2.90;;
7477;SDS011;3780;42.424;25.636;2023-07-29T05:08:42;12.77;;;5.65;;
7477;SDS011;3780;42.424;25.636;2023-07-29T05:11:07;13.93;;;6.28;;
7477;SDS011;3780;42.424;25.636;2023-07-29T05:13:33;9.93;;;4.88;;
7477;SDS011;3780;42.424;25.636;2023-07-29T05:15:58;14.63;;;5.03;;
7477;SDS011;3780;42.424;25.636;2023-07-29T05:18:23;16.85;;;9.85;;
7477;SDS011;3780;42.424;25.636;2023-07-29T05:20:48;19.45;;;12.32;;
7477;SDS011;3780;42.424;25.636;2023-07-29T05:23:14;13.20;;;6.32;;
7477;SDS011;3780;42.424;25.636;2023-07-29T05:25:39;23.17;;;13.25;;
7477;SDS011;3780;42.424;25.636;2023-07-29T05:28:04;17.85;;;9.57;;
7477;SDS011;3780;42.424;25.636;2023-07-29T05:30:30;9.77;;;4.00;;
7477;SDS011;3780;42.424;25.636;2023-07-29T05:33:02;14.52;;;4.88;;
7477;SDS011;3780;42.424;25.636;2023-07-29T05:35:27;7.07;;;4.25;;
7477;SDS011;3780;42.424;25.636;2023-07-29T05:37:52;14.18;;;4.45;;
7477;SDS011;3780;42.424;25.636;2023-07-29T05:40:18;7.97;;;3.42;;
7477;SDS011;3780;42.424;25.636;2023-07-29T05:42:43;5.57;;;3.75;;
7477;SDS011;3780;42.424;25.636;2023-07-29T05:45:10;7.38;;;3.55;;
7477;SDS011;3780;42.424;25.636;2023-07-29T05:47:35;6.72;;;3.13;;
7477;SDS011;3780;42.424;25.636;2023-07-29T05:50:01;11.98;;;3.53;;
7477;SDS011;3780;42.424;25.636;2023-07-29T05:52:29;9.98;;;3.38;;
7477;SDS011;3780;42.424;25.636;2023-07-29T05:54:54;3.38;;;2.05;;
7477;SDS011;3780;42.424;25.636;2023-07-29T05:57:20;8.02;;;3.90;;
7477;SDS011;3780;42.424;25.636;2023-07-29T05:59:45;6.15;;;2.65;;
7477;SDS011;3780;42.424;25.636;2023-07-29T06:02:10;5.13;;;2.35;;
7477;SDS011;3780;42.424;25.636;2023-07-29T06:04:36;5.00;;;2.13;;
7477;SDS011;3780;42.424;25.636;2023-07-29T06:07:01;6.32;;;2.35;;
7477;SDS011;3780;42.424;25.636;2023-07-29T06:09:26;8.05;;;2.70;;
7477;SDS011;3780;42.424;25.636;2023-07-29T06:11:51;9.60;;;2.45;;
7477;SDS011;3780;42.424;25.636;2023-07-29T06:14:17;7.68;;;2.40;;
7477;SDS011;3780;42.424;25.636;2023-07-29T06:16:42;9.30;;;2.90;;
7477;SDS011;3780;42.424;25.636;2023-07-29T06:19:07;7.43;;;2.28;;
7477;SDS011;3780;42.424;25.636;2023-07-29T06:21:34;4.35;;;2.15;;
7477;SDS011;3780;42.424;25.636;2023-07-29T06:23:59;5.72;;;2.00;;
7477;SDS011;3780;42.424;25.636;2023-07-29T06:26:24;7.25;;;2.20;;
7477;SDS011;3780;42.424;25.636;2023-07-29T06:28:49;4.22;;;2.10;;
7477;SDS011;3780;42.424;25.636;2023-07-29T06:31:15;8.25;;;2.35;;
7477;SDS011;3780;42.424;25.636;2023-07-29T06:33:40;15.05;;;4.03;;
7477;SDS011;3780;42.424;25.636;2023-07-29T06:36:05;6.90;;;2.63;;
7477;SDS011;3780;42.424;25.636;2023-07-29T06:38:31;6.07;;;2.40;;
7477;SDS011;3780;42.424;25.636;2023-07-29T06:40:56;6.18;;;2.28;;
7477;SDS011;3780;42.424;25.636;2023-07-29T06:43:21;7.78;;;2.67;;
7477;SDS011;3780;42.424;25.636;2023-07-29T06:45:47;5.15;;;1.95;;
7477;SDS011;3780;42.424;25.636;2023-07-29T06:48:12;3.72;;;2.22;;
7477;SDS011;3780;42.424;25.636;2023-07-29T06:50:37;5.57;;;2.35;;
7477;SDS011;3780;42.424;25.636;2023-07-29T06:53:03;4.05;;;2.20;;
7477;SDS011;3780;42.424;25.636;2023-07-29T06:55:28;7.85;;;2.08;;
7477;SDS011;3780;42.424;25.636;2023-07-29T06:57:53;5.97;;;2.05;;
7477;SDS011;3780;42.424;25.636;2023-07-29T07:00:18;6.85;;;2.47;;
7477;SDS011;3780;42.424;25.636;2023-07-29T07:02:44;5.78;;;2.88;;
7477;SDS011;3780;42.424;25.636;2023-07-29T07:05:09;3.80;;;2.28;;
7477;SDS011;3780;42.424;25.636;2023-07-29T07:07:34;5.15;;;2.22;;
7477;SDS011;3780;42.424;25.636;2023-07-29T07:10:00;8.50;;;2.20;;
7477;SDS011;3780;42.424;25.636;2023-07-29T07:12:25;6.38;;;2.60;;
7477;SDS011;3780;42.424;25.636;2023-07-29T07:14:50;5.13;;;2.40;;
7477;SDS011;3780;42.424;25.636;2023-07-29T07:17:16;15.32;;;3.47;;
7477;SDS011;3780;42.424;25.636;2023-07-29T07:19:41;4.15;;;2.63;;
7477;SDS011;3780;42.424;25.636;2023-07-29T07:22:06;4.82;;;2.80;;
7477;SDS011;3780;42.424;25.636;2023-07-29T07:24:32;9.52;;;2.92;;
7477;SDS011;3780;42.424;25.636;2023-07-29T07:26:57;7.15;;;2.70;;
7477;SDS011;3780;42.424;25.636;2023-07-29T07:29:23;9.25;;;3.30;;
7477;SDS011;3780;42.424;25.636;2023-07-29T07:31:52;6.90;;;3.08;;
7477;SDS011;3780;42.424;25.636;2023-07-29T07:34:21;5.88;;;3.33;;
7477;SDS011;3780;42.424;25.636;2023-07-29T07:36:47;9.02;;;5.25;;
7477;SDS011;3780;42.424;25.636;2023-07-29T07:39:12;6.70;;;3.13;;
7477;SDS011;3780;42.424;25.636;2023-07-29T07:41:37;5.15;;;2.40;;
7477;SDS011;3780;42.424;25.636;2023-07-29T07:44:03;4.60;;;2.50;;
7477;SDS011;3780;42.424;25.636;2023-07-29T07:46:28;3.25;;;1.90;;
7477;SDS011;3780;42.424;25.636;2023-07-29T07:48:54;7.65;;;1.90;;
7477;SDS011;3780;42.424;25.636;2023-07-29T07:51:19;5.63;;;2.60;;
7477;SDS011;3780;42.424;25.636;2023-07-29T07:53:44;6.30;;;2.50;;
7477;SDS011;3780;42.424;25.636;2023-07-29T07:56:09;4.72;;;2.60;;
7477;SDS011;3780;42.424;25.636;2023-07-29T07:58:35;12.20;;;5.45;;
7477;SDS011;3780;42.424;25.636;2023-07-29T08:01:01;10.00;;;3.85;;
7477;SDS011;3780;42.424;25.636;2023-07-29T08:03:26;6.97;;;2.33;;
7477;SDS011;3780;42.424;25.636;2023-07-29T08:05:51;4.13;;;2.13;;
7477;SDS011;3780;42.424;25.636;2023-07-29T08:08:16;12.48;;;4.00;;
7477;SDS011;3780;42.424;25.636;2023-07-29T08:10:42;6.32;;;3.40;;
7477;SDS011;3780;42.424;25.636;2023-07-29T08:13:07;8.25;;;2.55;;
7477;SDS011;3780;42.424;25.636;2023-07-29T08:15:33;5.20;;;2.83;;
7477;SDS011;3780;42.424;25.636;2023-07-29T08:17:58;4.32;;;2.00;;
7477;SDS011;3780;42.424;25.636;2023-07-29T08:20:23;12.38;;;3.30;;
7477;SDS011;3780;42.424;25.636;2023-07-29T08:22:48;8.63;;;5.38;;
7477;SDS011;3780;42.424;25.636;2023-07-29T08:25:14;4.35;;;3.08;;
7477;SDS011;3780;42.424;25.636;2023-07-29T08:27:39;2.55;;;1.60;;
7477;SDS011;3780;42.424;25.636;2023-07-29T08:30:04;2.38;;;1.55;;
7477;SDS011;3780;42.424;25.636;2023-07-29T08:32:30;5.78;;;2.60;;
7477;SDS011;3780;42.424;25.636;2023-07-29T08:34:55;10.20;;;3.60;;
7477;SDS011;3780;42.424;25.636;2023-07-29T08:37:20;3.95;;;2.35;;
7477;SDS011;3780;42.424;25.636;2023-07-29T08:39:46;4.80;;;2.40;;
7477;SDS011;3780;42.424;25.636;2023-07-29T08:42:11;4.50;;;2.60;;
7477;SDS011;3780;42.424;25.636;2023-07-29T08:44:46;4.03;;;3.20;;
7477;SDS011;3780;42.424;25.636;2023-07-29T08:47:13;4.38;;;3.10;;
7477;SDS011;3780;42.424;25.636;2023-07-29T08:49:38;6.20;;;2.80;;
7477;SDS011;3780;42.424;25.636;2023-07-29T08:52:04;3.00;;;2.28;;
7477;SDS011;3780;42.424;25.636;2023-07-29T08:54:29;7.65;;;2.92;;
7477;SDS011;3780;42.424;25.636;2023-07-29T08:56:55;5.10;;;2.08;;
7477;SDS011;3780;42.424;25.636;2023-07-29T08:59:21;7.60;;;2.65;;
7477;SDS011;3780;42.424;25.636;2023-07-29T09:01:46;5.28;;;2.33;;
7477;SDS011;3780;42.424;25.636;2023-07-29T09:04:11;5.28;;;2.63;;
7477;SDS011;3780;42.424;25.636;2023-07-29T09:06:37;4.45;;;1.77;;
7477;SDS011;3780;42.424;25.636;2023-07-29T09:09:03;2.22;;;1.55;;
7477;SDS011;3780;42.424;25.636;2023-07-29T09:11:29;4.93;;;1.98;;
7477;SDS011;3780;42.424;25.636;2023-07-29T09:13:54;8.13;;;2.00;;
7477;SDS011;3780;42.424;25.636;2023-07-29T09:16:20;3.97;;;1.65;;
7477;SDS011;3780;42.424;25.636;2023-07-29T09:18:49;4.35;;;1.98;;
7477;SDS011;3780;42.424;25.636;2023-07-29T09:21:22;4.60;;;1.90;;
7477;SDS011;3780;42.424;25.636;2023-07-29T09:23:48;2.45;;;1.75;;
7477;SDS011;3780;42.424;25.636;2023-07-29T09:26:18;5.35;;;1.70;;
7477;SDS011;3780;42.424;25.636;2023-07-29T09:28:50;1.90;;;1.63;;
7477;SDS011;3780;42.424;25.636;2023-07-29T09:31:23;2.55;;;1.65;;
7477;SDS011;3780;42.424;25.636;2023-07-29T09:33:48;4.40;;;2.35;;
7477;SDS011;3780;42.424;25.636;2023-07-29T09:36:13;5.90;;;2.10;;
7477;SDS011;3780;42.424;25.636;2023-07-29T09:38:39;4.38;;;1.90;;
7477;SDS011;3780;42.424;25.636;2023-07-29T09:41:04;4.03;;;2.03;;
7477;SDS011;3780;42.424;25.636;2023-07-29T09:43:30;3.15;;;1.55;;
7477;SDS011;3780;42.424;25.636;2023-07-29T09:46:00;6.35;;;2.10;;
7477;SDS011;3780;42.424;25.636;2023-07-29T09:48:25;5.72;;;1.92;;
7477;SDS011;3780;42.424;25.636;2023-07-29T09:50:51;5.13;;;2.20;;
7477;SDS011;3780;42.424;25.636;2023-07-29T09:53:16;9.38;;;3.03;;
7477;SDS011;3780;42.424;25.636;2023-07-29T09:55:45;6.65;;;2.28;;
7477;SDS011;3780;42.424;25.636;2023-07-29T09:58:11;4.70;;;2.15;;
7477;SDS011;3780;42.424;25.636;2023-07-29T10:00:36;7.43;;;2.47;;
7477;SDS011;3780;42.424;25.636;2023-07-29T10:03:04;3.50;;;1.80;;
7477;SDS011;3780;42.424;25.636;2023-07-29T10:05:29;4.28;;;1.77;;
7477;SDS011;3780;42.424;25.636;2023-07-29T10:07:55;3.63;;;1.80;;
7477;SDS011;3780;42.424;25.636;2023-07-29T10:10:20;3.58;;;1.92;;
7477;SDS011;3780;42.424;25.636;2023-07-29T10:12:46;7.55;;;3.00;;
7477;SDS011;3780;42.424;25.636;2023-07-29T10:15:12;4.75;;;1.70;;
7477;SDS011;3780;42.424;25.636;2023-07-29T10:17:37;4.03;;;1.73;;
7477;SDS011;3780;42.424;25.636;2023-07-29T10:20:06;5.05;;;1.92;;
7477;SDS011;3780;42.424;25.636;2023-07-29T10:22:42;5.15;;;1.80;;
7477;SDS011;3780;42.424;25.636;2023-07-29T10:25:08;8.13;;;1.73;;
7477;SDS011;3780;42.424;25.636;2023-07-29T10:27:38;4.43;;;2.38;;
7477;SDS011;3780;42.424;25.636;2023-07-29T10:30:07;7.38;;;2.00;;
7477;SDS011;3780;42.424;25.636;2023-07-29T10:32:32;3.03;;;1.92;;
7477;SDS011;3780;42.424;25.636;2023-07-29T10:34:58;3.83;;;1.67;;
7477;SDS011;3780;42.424;25.636;2023-07-29T10:37:23;3.78;;;2.03;;
7477;SDS011;3780;42.424;25.636;2023-07-29T10:39:52;4.32;;;2.22;;
7477;SDS011;3780;42.424;25.636;2023-07-29T10:42:19;5.40;;;2.30;;
7477;SDS011;3780;42.424;25.636;2023-07-29T10:44:51;4.28;;;2.08;;
7477;SDS011;3780;42.424;25.636;2023-07-29T10:47:26;3.33;;;1.80;;
7477;SDS011;3780;42.424;25.636;2023-07-29T10:49:53;3.17;;;1.70;;
7477;SDS011;3780;42.424;25.636;2023-07-29T10:57:35;2.43;;;1.83;;
7477;SDS011;3780;42.424;25.636;2023-07-29T11:00:01;3.72;;;1.55;;
7477;SDS011;3780;42.424;25.636;2023-07-29T11:02:35;12.13;;;3.13;;
7477;SDS011;3780;42.424;25.636;2023-07-29T11:05:04;4.72;;;1.67;;
7477;SDS011;3780;42.424;25.636;2023-07-29T11:07:30;4.60;;;1.80;;
7477;SDS011;3780;42.424;25.636;2023-07-29T11:09:59;4.00;;;2.10;;
7477;SDS011;3780;42.424;25.636;2023-07-29T11:17:34;4.90;;;2.08;;
7477;SDS011;3780;42.424;25.636;2023-07-29T11:20:02;11.70;;;3.10;;
7477;SDS011;3780;42.424;25.636;2023-07-29T11:22:28;5.40;;;2.10;;
7477;SDS011;3780;42.424;25.636;2023-07-29T11:24:54;4.28;;;1.80;;
7477;SDS011;3780;42.424;25.636;2023-07-29T11:27:19;2.95;;;2.00;;
7477;SDS011;3780;42.424;25.636;2023-07-29T11:29:44;2.58;;;1.80;;
7477;SDS011;3780;42.424;25.636;2023-07-29T11:32:10;5.18;;;1.70;;
7477;SDS011;3780;42.424;25.636;2023-07-29T11:34:35;6.65;;;1.60;;
7477;SDS011;3780;42.424;25.636;2023-07-29T11:37:00;4.80;;;2.00;;
7477;SDS011;3780;42.424;25.636;2023-07-29T11:39:26;9.37;;;4.30;;
7477;SDS011;3780;42.424;25.636;2023-07-29T11:41:51;3.45;;;2.42;;
7477;SDS011;3780;42.424;25.636;2023-07-29T11:44:17;2.50;;;1.80;;
7477;SDS011;3780;42.424;25.636;2023-07-29T11:46:42;3.47;;;2.00;;
7477;SDS011;3780;42.424;25.636;2023-07-29T11:49:08;6.10;;;1.67;;
7477;SDS011;3780;42.424;25.636;2023-07-29T11:51:33;2.23;;;1.67;;
7477;SDS011;3780;42.424;25.636;2023-07-29T11:53:58;3.13;;;1.55;;
7477;SDS011;3780;42.424;25.636;2023-07-29T11:56:24;3.08;;;1.52;;
7477;SDS011;3780;42.424;25.636;2023-07-29T11:58:50;3.15;;;1.65;;
7477;SDS011;3780;42.424;25.636;2023-07-29T12:01:15;4.28;;;1.60;;
7477;SDS011;3780;42.424;25.636;2023-07-29T12:03:40;4.38;;;1.77;;
7477;SDS011;3780;42.424;25.636;2023-07-29T12:06:06;3.45;;;1.60;;
7477;SDS011;3780;42.424;25.636;2023-07-29T12:08:32;2.63;;;1.70;;
7477;SDS011;3780;42.424;25.636;2023-07-29T12:10:57;2.58;;;1.42;;
7477;SDS011;3780;42.424;25.636;2023-07-29T12:13:25;1.98;;;1.63;;
7477;SDS011;3780;42.424;25.636;2023-07-29T12:15:51;2.88;;;1.73;;
7477;SDS011;3780;42.424;25.636;2023-07-29T12:18:16;2.05;;;1.60;;
7477;SDS011;3780;42.424;25.636;2023-07-29T12:20:43;8.63;;;2.03;;
7477;SDS011;3780;42.424;25.636;2023-07-29T12:23:08;2.97;;;1.58;;
7477;SDS011;3780;42.424;25.636;2023-07-29T12:25:34;2.47;;;1.60;;
7477;SDS011;3780;42.424;25.636;2023-07-29T12:28:03;7.38;;;2.10;;
7477;SDS011;3780;42.424;25.636;2023-07-29T12:30:29;3.50;;;1.77;;
7477;SDS011;3780;42.424;25.636;2023-07-29T12:32:55;6.15;;;2.25;;
7477;SDS011;3780;42.424;25.636;2023-07-29T12:35:20;9.70;;;2.92;;
7477;SDS011;3780;42.424;25.636;2023-07-29T12:37:45;3.22;;;2.00;;
7477;SDS011;3780;42.424;25.636;2023-07-29T12:40:21;2.85;;;1.63;;
7477;SDS011;3780;42.424;25.636;2023-07-29T12:42:50;9.00;;;3.00;;
7477;SDS011;3780;42.424;25.636;2023-07-29T12:45:16;5.78;;;2.15;;
7477;SDS011;3780;42.424;25.636;2023-07-29T12:47:42;5.47;;;1.95;;
7477;SDS011;3780;42.424;25.636;2023-07-29T12:50:08;4.88;;;3.20;;
7477;SDS011;3780;42.424;25.636;2023-07-29T12:52:33;7.45;;;3.28;;
7477;SDS011;3780;42.424;25.636;2023-07-29T12:54:59;3.13;;;1.77;;
7477;SDS011;3780;42.424;25.636;2023-07-29T12:57:24;3.70;;;2.00;;
7477;SDS011;3780;42.424;25.636;2023-07-29T12:59:49;2.95;;;1.90;;
7477;SDS011;3780;42.424;25.636;2023-07-29T13:02:15;4.75;;;1.83;;
7477;SDS011;3780;42.424;25.636;2023-07-29T13:04:40;3.38;;;1.77;;
7477;SDS011;3780;42.424;25.636;2023-07-29T13:07:05;5.65;;;1.50;;
7477;SDS011;3780;42.424;25.636;2023-07-29T13:09:31;2.40;;;1.90;;
7477;SDS011;3780;42.424;25.636;2023-07-29T13:11:57;4.35;;;1.90;;
7477;SDS011;3780;42.424;25.636;2023-07-29T13:14:22;3.30;;;2.40;;
7477;SDS011;3780;42.424;25.636;2023-07-29T13:16:48;9.13;;;5.28;;
7477;SDS011;3780;42.424;25.636;2023-07-29T13:19:13;5.47;;;2.80;;
7477;SDS011;3780;42.424;25.636;2023-07-29T13:21:38;4.82;;;2.00;;
7477;SDS011;3780;42.424;25.636;2023-07-29T13:24:04;5.35;;;2.70;;
7477;SDS011;3780;42.424;25.636;2023-07-29T13:26:29;4.68;;;1.80;;
7477;SDS011;3780;42.424;25.636;2023-07-29T13:28:54;2.45;;;1.70;;
7477;SDS011;3780;42.424;25.636;2023-07-29T13:31:20;2.43;;;1.30;;
7477;SDS011;3780;42.424;25.636;2023-07-29T13:33:46;4.22;;;1.92;;
7477;SDS011;3780;42.424;25.636;2023-07-29T13:36:11;2.80;;;1.65;;
7477;SDS011;3780;42.424;25.636;2023-07-29T21:21:23;2.80;;;2.20;;
7477;SDS011;3780;42.424;25.636;2023-07-29T21:23:48;3.50;;;2.22;;
7477;SDS011;3780;42.424;25.636;2023-07-29T21:45:35;2.33;;;1.75;;
7477;SDS011;3780;42.424;25.636;2023-07-29T21:48:00;5.13;;;2.13;;
7477;SDS011;3780;42.424;25.636;2023-07-29T21:50:26;3.92;;;2.10;;
7477;SDS011;3780;42.424;25.636;2023-07-29T21:52:51;12.35;;;3.00;;
7477;SDS011;3780;42.424;25.636;2023-07-29T21:55:16;5.40;;;2.20;;
7477;SDS011;3780;42.424;25.636;2023-07-29T21:57:43;7.85;;;2.63;;
7477;SDS011;3780;42.424;25.636;2023-07-29T22:00:08;3.10;;;1.98;;
7477;SDS011;3780;42.424;25.636;2023-07-29T22:02:33;3.20;;;2.17;;
7477;SDS011;3780;42.424;25.636;2023-07-29T22:04:59;2.70;;;2.00;;
7477;SDS011;3780;42.424;25.636;2023-07-29T22:07:24;3.72;;;2.40;;
7477;SDS011;3780;42.424;25.636;2023-07-29T22:09:49;4.07;;;2.10;;
7477;SDS011;3780;42.424;25.636;2023-07-29T22:12:15;4.68;;;2.15;;
7477;SDS011;3780;42.424;25.636;2023-07-29T22:14:40;6.40;;;2.40;;
7477;SDS011;3780;42.424;25.636;2023-07-29T22:17:07;3.75;;;2.17;;
7477;SDS011;3780;42.424;25.636;2023-07-29T22:19:32;4.80;;;2.22;;
7477;SDS011;3780;42.424;25.636;2023-07-29T23:27:19;5.73;;;2.07;;
7477;SDS011;3780;42.424;25.636;2023-07-29T23:29:45;3.50;;;1.92;;
7477;SDS011;3780;42.424;25.636;2023-07-29T23:32:10;2.45;;;2.08;;
7477;SDS011;3780;42.424;25.636;2023-07-29T23:34:35;2.53;;;1.63;;
7477;SDS011;3780;42.424;25.636;2023-07-29T23:37:00;5.28;;;1.92;;
7477;SDS011;3780;42.424;25.636;2023-07-29T23:39:26;2.80;;;1.73;;
7477;SDS011;3780;42.424;25.636;2023-07-29T23:41:51;2.65;;;1.60;;
7477;SDS011;3780;42.424;25.636;2023-07-29T23:44:16;5.25;;;2.22;;
7477;SDS011;3780;42.424;25.636;2023-07-29T23:46:41;3.88;;;1.70;;
7477;SDS011;3780;42.424;25.636;2023-07-29T23:49:07;6.78;;;2.10;;
7477;SDS011;3780;42.424;25.636;2023-07-29T23:51:32;4.40;;;2.15;;
7477;SDS011;3780;42.424;25.636;2023-07-29T23:53:57;5.38;;;1.98;;
7477;SDS011;3780;42.424;25.636;2023-07-29T23:56:22;4.63;;;1.83;;
7477;SDS011;3780;42.424;25.636;2023-07-29T23:58:48;4.22;;;1.80;;
